Time;durP1;ratioP1;P1;durP2;ratioP2;P2;SDS_P1;SDS_P2;PMS_P1;PMS_P2;Temp;Humidity;BMP_temperature;BMP_pressure;BME280_temperature;BME280_humidity;BME280_pressure;Samples;Min_cycle;Max_cycle;Signal;HPM_P1;HPM_P2
2022/11/12 00:01:34;;;;;;;9.20;7.90;;;;;;;5.18;100.00;103145.56;5075358;28;20033;-34
2022/11/12 00:03:59;;;;;;;10.67;8.13;;;;;;;5.17;100.00;103151.88;5075016;28;20020;-34
2022/11/12 00:06:24;;;;;;;12.20;7.90;;;;;;;5.15;100.00;103141.31;5074941;28;20064;-34
2022/11/12 00:08:50;;;;;;;9.97;7.57;;;;;;;5.14;100.00;103154.88;5075821;28;20112;-34
2022/11/12 00:11:15;;;;;;;11.67;8.07;;;;;;;5.08;100.00;103148.22;5075208;28;20372;-34
2022/11/12 00:13:40;;;;;;;11.17;7.60;;;;;;;5.07;100.00;103151.88;5075798;28;20033;-34
2022/11/12 00:16:06;;;;;;;10.87;7.97;;;;;;;5.04;100.00;103159.38;5075083;28;20086;-34
2022/11/12 00:18:31;;;;;;;10.93;7.93;;;;;;;5.04;100.00;103146.81;5075369;28;20025;-34
2022/11/12 00:20:57;;;;;;;9.37;8.20;;;;;;;5.08;100.00;103163.47;5074931;28;20475;-34
2022/11/12 00:23:22;;;;;;;10.17;7.80;;;;;;;5.06;100.00;103165.44;5075524;28;20029;-34
2022/11/12 00:25:57;;;;;;;10.10;8.00;;;;;;;4.92;100.00;103153.25;5075385;28;20033;-34
2022/11/12 00:28:22;;;;;;;10.68;8.40;;;;;;;4.96;100.00;103159.19;5074459;28;20028;-34
2022/11/12 00:30:47;;;;;;;12.27;8.70;;;;;;;4.89;100.00;103159.75;5075002;28;20029;-34
2022/11/12 00:33:13;;;;;;;8.67;7.07;;;;;;;5.04;100.00;103162.91;5074798;28;20028;-34
2022/11/12 00:35:38;;;;;;;12.57;9.67;;;;;;;4.89;100.00;103149.03;5075148;28;20025;-35
2022/11/12 00:38:03;;;;;;;11.40;10.07;;;;;;;5.05;100.00;103169.94;5074663;28;20465;-34
2022/11/12 00:40:29;;;;;;;9.97;8.53;;;;;;;5.18;100.00;103169.69;5074611;28;20024;-34
2022/11/12 00:42:54;;;;;;;14.00;10.53;;;;;;;5.15;100.00;103168.13;5074125;28;20052;-34
2022/11/12 00:45:20;;;;;;;14.97;12.40;;;;;;;5.11;100.00;103171.22;5074538;28;20028;-34
2022/11/12 00:47:45;;;;;;;14.75;11.70;;;;;;;5.04;100.00;103162.91;5074266;28;20100;-34
2022/11/12 00:50:11;;;;;;;13.63;12.20;;;;;;;5.04;100.00;103164.72;5074062;28;20028;-34
2022/11/12 00:52:36;;;;;;;13.87;10.93;;;;;;;5.06;100.00;103158.22;5074853;28;20173;-34
2022/11/12 00:55:02;;;;;;;14.23;11.40;;;;;;;4.80;100.00;103165.94;5074365;28;20354;-34
2022/11/12 00:57:27;;;;;;;16.17;12.02;;;;;;;4.68;100.00;103161.66;5074620;28;20034;-34
2022/11/12 00:59:52;;;;;;;12.90;11.20;;;;;;;4.82;100.00;103147.88;5074499;28;20032;-34
2022/11/12 01:02:19;;;;;;;14.93;12.03;;;;;;;4.77;100.00;103150.09;5074160;28;20035;-34
2022/11/12 01:04:44;;;;;;;16.80;12.75;;;;;;;4.81;100.00;103151.53;5073885;28;20098;-34
2022/11/12 01:07:10;;;;;;;14.88;12.32;;;;;;;4.78;100.00;103162.56;5073846;28;20033;-34
2022/11/12 01:09:35;;;;;;;16.33;13.15;;;;;;;4.80;100.00;103160.56;5074227;28;20032;-34
2022/11/12 01:12:00;;;;;;;14.63;13.07;;;;;;;4.79;100.00;103158.88;5073998;28;20456;-34
2022/11/12 01:14:26;;;;;;;15.73;13.60;;;;;;;4.82;100.00;103158.59;5074691;28;20029;-34
2022/11/12 01:16:51;;;;;;;16.10;13.30;;;;;;;4.80;100.00;103155.22;5073549;28;20511;-34
2022/11/12 01:19:16;;;;;;;16.40;12.00;;;;;;;4.84;100.00;103161.16;5074164;28;20115;-34
2022/11/12 01:21:43;;;;;;;13.73;11.33;;;;;;;4.82;100.00;103161.28;5073556;28;20036;-34
2022/11/12 01:24:08;;;;;;;13.48;11.80;;;;;;;4.81;100.00;103156.91;5073810;28;20025;-34
2022/11/12 01:26:35;;;;;;;15.77;11.68;;;;;;;4.73;100.00;103147.84;5073664;28;20035;-34
2022/11/12 01:29:00;;;;;;;15.43;12.02;;;;;;;4.64;100.00;103154.88;5073609;28;20036;-34
2022/11/12 01:31:31;;;;;;;11.17;10.00;;;;;;;4.80;100.00;103149.00;5072218;28;20404;-34
2022/11/12 01:33:59;;;;;;;14.20;11.25;;;;;;;4.74;100.00;103155.75;5073649;28;20372;-34
2022/11/12 01:36:26;;;;;;;11.50;9.98;;;;;;;4.62;100.00;103140.75;5073488;28;20102;-34
2022/11/12 01:38:52;;;;;;;13.43;9.75;;;;;;;4.77;100.00;103149.25;5074143;28;20418;-34
2022/11/12 01:41:21;;;;;;;12.18;10.68;;;;;;;4.62;100.00;103130.03;5073378;28;20403;-34
2022/11/12 01:43:47;;;;;;;12.65;10.60;;;;;;;4.72;100.00;103151.50;5073904;28;20090;-34
2022/11/12 01:46:27;;;;;;;12.25;10.50;;;;;;;4.68;100.00;103152.75;5073062;28;20028;-34
2022/11/12 01:48:57;;;;;;;13.80;10.13;;;;;;;4.56;100.00;103138.63;5072452;28;20465;-34
2022/11/12 01:51:29;;;;;;;13.10;10.65;;;;;;;4.59;100.00;103139.22;5074086;28;20029;-34
2022/11/12 01:53:58;;;;;;;12.38;10.02;;;;;;;4.58;100.00;103142.00;5073701;28;20062;-34
2022/11/12 01:56:27;;;;;;;12.10;9.77;;;;;;;4.68;100.00;103144.72;5073156;28;20040;-34
2022/11/12 01:58:59;;;;;;;14.18;10.07;;;;;;;4.59;100.00;103146.41;5073415;28;20380;-34
2022/11/12 02:01:25;;;;;;;11.20;9.77;;;;;;;4.59;100.00;103138.38;5073123;28;20047;-34
2022/11/12 02:03:50;;;;;;;14.40;10.40;;;;;;;4.56;100.00;103141.31;5073126;28;20036;-34
2022/11/12 02:06:18;;;;;;;11.83;9.30;;;;;;;4.46;100.00;103140.41;5073247;28;20427;-34
2022/11/12 02:08:44;;;;;;;10.35;8.60;;;;;;;4.46;100.00;103140.41;5072949;28;20035;-34
2022/11/12 02:11:13;;;;;;;;;;;;;;;4.52;100.00;103143.41;5073617;28;20100;-34
2022/11/12 02:13:57;;;;;;;12.38;9.07;;;;;;;4.35;100.00;103127.97;5073535;28;19930;-34
2022/11/12 02:16:29;;;;;;;10.43;8.77;;;;;;;4.35;100.00;103139.53;5072862;28;20029;-34
2022/11/12 02:18:54;;;;;;;10.23;9.15;;;;;;;4.42;100.00;103134.47;5072864;28;20414;-34
2022/11/12 02:21:22;;;;;;;11.87;9.33;;;;;;;4.48;100.00;103141.13;5072889;28;20028;-34
2022/11/12 02:24:15;;;;;;;10.63;9.52;;;;;;;4.37;100.00;103126.00;5073292;28;20266;-34
2022/11/12 02:26:45;;;;;;;10.55;8.57;;;;;;;4.43;100.00;103130.81;5072674;28;20036;-34
2022/11/12 02:29:10;;;;;;;12.85;9.18;;;;;;;4.35;100.00;103131.50;5072817;28;20027;-34
2022/11/12 02:31:36;;;;;;;12.65;9.52;;;;;;;4.32;100.00;103125.56;5073134;28;20082;-34
2022/11/12 02:34:02;;;;;;;11.97;8.83;;;;;;;4.25;100.00;103122.56;5072787;28;20078;-34
2022/11/12 02:36:28;;;;;;;10.73;8.43;;;;;;;4.39;100.00;103142.78;5072791;28;20089;-34
2022/11/12 02:38:53;;;;;;;11.30;8.68;;;;;;;4.16;100.00;103107.31;5072517;28;20369;-34
2022/11/12 02:41:18;;;;;;;11.83;8.07;;;;;;;4.36;100.00;103141.22;5072777;28;20029;-34
2022/11/12 02:43:44;;;;;;;13.43;9.93;;;;;;;4.28;100.00;103137.50;5073445;28;20146;-34
2022/11/12 02:46:09;;;;;;;9.63;7.53;;;;;;;4.34;100.00;103120.91;5072852;28;20123;-34
2022/11/12 02:48:35;;;;;;;8.63;7.67;;;;;;;4.53;100.00;103141.56;5072941;28;20459;-34
2022/11/12 02:51:00;;;;;;;10.93;7.77;;;;;;;4.53;100.00;103136.19;5072693;28;20058;-35
2022/11/12 02:53:25;;;;;;;10.93;8.63;;;;;;;4.41;100.00;103123.91;5072581;28;20046;-34
2022/11/12 02:55:51;;;;;;;11.30;8.60;;;;;;;4.49;100.00;103130.28;5073100;28;20259;-34
2022/11/12 02:58:16;;;;;;;10.20;8.27;;;;;;;4.47;100.00;103132.25;5072922;28;20043;-34
2022/11/12 03:00:42;;;;;;;8.73;7.67;;;;;;;4.47;100.00;103109.97;5072473;28;20388;-34
2022/11/12 03:03:07;;;;;;;8.83;7.10;;;;;;;4.58;100.00;103113.38;5072809;28;20111;-34
2022/11/12 03:05:34;;;;;;;9.17;7.10;;;;;;;4.57;100.00;103117.03;5073616;28;20120;-34
2022/11/12 03:08:04;;;;;;;9.68;7.70;;;;;;;4.48;100.00;103117.84;5076341;28;20028;-34
2022/11/12 03:10:31;;;;;;;8.95;7.55;;;;;;;4.50;100.00;103115.06;5076194;28;20107;-34
2022/11/12 03:12:58;;;;;;;10.27;7.88;;;;;;;4.46;100.00;103119.00;5077000;28;20037;-34
2022/11/12 03:15:24;;;;;;;10.55;7.15;;;;;;;4.41;100.00;103131.94;5076111;28;20035;-34
2022/11/12 03:17:49;;;;;;;7.47;6.47;;;;;;;4.24;100.00;103120.84;5076151;28;20104;-34
2022/11/12 03:20:15;;;;;;;11.07;7.30;;;;;;;4.25;100.00;103124.41;5076181;28;20036;-34
2022/11/12 03:22:41;;;;;;;12.68;7.78;;;;;;;4.28;100.00;103121.44;5076283;28;20067;-34
2022/11/12 03:25:07;;;;;;;10.00;7.50;;;;;;;4.33;100.00;103124.56;5076221;28;20035;-34
2022/11/12 03:27:33;;;;;;;8.32;7.25;;;;;;;4.24;100.00;103126.19;5075921;28;20029;-34
2022/11/12 03:29:58;;;;;;;8.90;7.17;;;;;;;4.25;100.00;103127.09;5075901;28;20031;-34
2022/11/12 03:32:23;;;;;;;9.00;7.37;;;;;;;4.26;100.00;103129.63;5076228;28;20056;-34
2022/11/12 03:34:49;;;;;;;9.77;8.07;;;;;;;4.24;100.00;103131.56;5076054;28;20469;-34
2022/11/12 03:37:14;;;;;;;9.70;7.03;;;;;;;4.24;100.00;103136.91;5075894;28;20075;-34
2022/11/12 03:39:40;;;;;;;8.70;7.60;;;;;;;4.25;100.00;103137.78;5076102;28;20063;-34
2022/11/12 03:42:05;;;;;;;8.60;7.47;;;;;;;4.28;100.00;103126.78;5074894;28;20024;-34
2022/11/12 03:44:30;;;;;;;8.73;6.90;;;;;;;4.29;100.00;103132.00;5075396;28;20028;-34
2022/11/12 03:46:56;;;;;;;10.20;7.10;;;;;;;4.21;100.00;103137.22;5075569;28;20032;-34
2022/11/12 03:49:21;;;;;;;8.73;7.20;;;;;;;4.10;100.00;103142.66;5075792;28;20055;-34
2022/11/12 03:51:46;;;;;;;8.67;7.00;;;;;;;4.17;100.00;103132.25;5075632;28;20161;-34
2022/11/12 03:54:12;;;;;;;10.83;7.47;;;;;;;4.21;100.00;103126.50;5075594;28;20040;-34
2022/11/12 03:56:37;;;;;;;11.17;6.43;;;;;;;4.23;100.00;103129.03;5075388;28;20020;-34
2022/11/12 03:59:03;;;;;;;8.57;6.72;;;;;;;4.23;100.00;103124.50;5075749;28;20050;-34
2022/11/12 04:01:28;;;;;;;9.43;7.80;;;;;;;4.19;100.00;103132.94;5074058;28;20445;-34
2022/11/12 04:03:54;;;;;;;8.03;7.00;;;;;;;4.07;100.00;103138.41;5075174;28;20251;-34
2022/11/12 04:09:03;;;;;;;8.98;6.80;;;;;;;4.01;100.00;103140.75;5075206;28;20066;-34
2022/11/12 04:11:28;;;;;;;12.20;7.83;;;;;;;4.04;100.00;103140.47;5075524;28;20028;-34
2022/11/12 04:13:53;;;;;;;10.00;7.07;;;;;;;3.93;100.00;103130.69;5075154;28;20020;-34
2022/11/12 04:21:58;;;;;;;10.20;6.55;;;;;;;3.65;100.00;103129.50;5075000;28;20078;-34
2022/11/12 04:27:09;;;;;;;10.63;7.88;;;;;;;3.72;100.00;103116.47;5074873;28;20050;-34
2022/11/12 04:32:20;;;;;;;9.25;6.80;;;;;;;3.75;100.00;103114.38;5075020;28;20110;-34
2022/11/12 04:34:45;;;;;;;12.63;7.65;;;;;;;3.68;100.00;103102.50;5074793;28;20033;-34
2022/11/12 04:37:10;;;;;;;8.70;7.20;;;;;;;3.71;100.00;103101.38;5074662;28;20120;-34
2022/11/12 04:39:36;;;;;;;8.67;7.30;;;;;;;3.82;100.00;103109.38;5074346;28;20059;-34
2022/11/12 04:45:06;;;;;;;9.13;7.53;;;;;;;3.71;100.00;103115.63;5075343;28;20055;-34
2022/11/12 04:47:32;;;;;;;9.32;7.25;;;;;;;3.67;100.00;103111.53;5074585;28;20040;-34
2022/11/12 04:49:58;;;;;;;10.00;7.50;;;;;;;3.69;100.00;103114.91;5074943;28;20063;-34
2022/11/12 04:52:25;;;;;;;9.10;7.18;;;;;;;3.61;100.00;103098.63;5074475;28;20131;-34
2022/11/12 04:54:51;;;;;;;7.78;6.78;;;;;;;3.71;100.00;103104.06;5074882;28;20049;-34
2022/11/12 04:57:16;;;;;;;8.65;6.55;;;;;;;3.69;100.00;103106.88;5074312;28;20032;-34
2022/11/12 04:59:41;;;;;;;10.80;6.90;;;;;;;3.66;100.00;103101.81;5074463;28;20047;-34
2022/11/12 05:02:07;;;;;;;9.10;6.70;;;;;;;3.51;100.00;103093.22;5074735;28;20029;-34
2022/11/12 05:04:32;;;;;;;9.23;6.50;;;;;;;3.55;100.00;103104.50;5074280;28;20020;-34
2022/11/12 05:06:58;;;;;;;9.67;6.60;;;;;;;3.52;100.00;103092.25;5073806;28;20028;-34
2022/11/12 05:09:26;;;;;;;9.35;7.00;;;;;;;3.55;100.00;103102.69;5074676;28;20073;-34
2022/11/12 05:11:54;;;;;;;9.15;7.00;;;;;;;3.60;100.00;103094.28;5073669;28;20028;-34
2022/11/12 05:14:20;;;;;;;10.40;7.72;;;;;;;3.60;100.00;103092.44;5074314;28;20051;-34
2022/11/12 05:16:45;;;;;;;9.85;6.85;;;;;;;3.56;100.00;103090.16;5073866;28;20025;-34
2022/11/12 05:19:10;;;;;;;8.37;6.93;;;;;;;3.51;100.00;103095.88;5074108;28;20036;-34
2022/11/12 05:24:41;;;;;;;8.65;7.43;;;;;;;3.43;100.00;103073.47;5051395;28;20029;-34
2022/11/12 05:27:15;;;;;;;9.38;6.72;;;;;;;3.42;100.00;103086.00;5051255;28;20120;-34
2022/11/12 05:29:41;;;;;;;7.30;6.43;;;;;;;3.46;100.00;103076.72;5050880;28;20087;-34
2022/11/12 05:32:08;;;;;;;9.23;7.00;;;;;;;3.49;100.00;103081.81;5051951;28;20076;-34
2022/11/12 05:34:33;;;;;;;8.63;6.82;;;;;;;3.49;100.00;103079.13;5051944;28;20143;-34
2022/11/12 05:37:00;;;;;;;8.23;6.63;;;;;;;3.39;100.00;103059.50;5051813;28;20029;-34
2022/11/12 05:39:25;;;;;;;8.02;6.80;;;;;;;3.50;100.00;103077.31;5051833;28;20036;-34
2022/11/12 05:41:51;;;;;;;8.77;7.10;;;;;;;3.35;100.00;103052.72;5051089;28;20052;-34
2022/11/12 05:44:16;;;;;;;10.82;6.80;;;;;;;3.48;100.00;103081.94;5035150;28;20037;-34
2022/11/12 05:46:42;;;;;;;9.43;7.20;;;;;;;3.46;100.00;103083.88;5051002;28;20039;-34
2022/11/12 05:49:07;;;;;;;11.18;7.30;;;;;;;3.46;100.00;103075.88;5051324;28;20044;-34
2022/11/12 05:51:33;;;;;;;7.77;6.23;;;;;;;3.38;100.00;103073.84;5051097;28;20112;-34
2022/11/12 05:53:58;;;;;;;9.30;6.73;;;;;;;3.41;100.00;103078.91;5051269;28;20132;-34
2022/11/12 05:56:23;;;;;;;7.57;6.57;;;;;;;3.44;100.00;103085.84;5071317;28;20043;-34
2022/11/12 05:58:49;;;;;;;9.63;7.10;;;;;;;3.44;100.00;103088.53;5073975;28;20722;-34
2022/11/12 06:01:14;;;;;;;7.23;5.50;;;;;;;3.36;100.00;103057.06;5073176;28;20028;-34
2022/11/12 06:03:39;;;;;;;10.40;5.90;;;;;;;3.52;100.00;103078.03;5073463;28;20032;-34
2022/11/12 06:06:05;;;;;;;9.13;6.87;;;;;;;3.52;100.00;103089.59;5073059;28;20052;-34
2022/11/12 06:08:30;;;;;;;10.90;6.47;;;;;;;3.54;100.00;103078.75;5073450;28;20021;-34
2022/11/12 06:10:56;;;;;;;7.33;5.87;;;;;;;3.67;100.00;103084.75;5072990;28;20271;-34
2022/11/12 06:13:23;;;;;;;8.67;6.23;;;;;;;3.69;100.00;103081.94;5072698;28;20044;-34
2022/11/12 06:15:50;;;;;;;8.10;6.13;;;;;;;3.73;100.00;103076.19;5073388;28;20024;-34
2022/11/12 06:18:15;;;;;;;9.00;7.25;;;;;;;3.72;100.00;103082.53;5072969;28;20078;-34
2022/11/12 06:20:40;;;;;;;8.93;7.07;;;;;;;3.64;100.00;103079.66;5073412;28;20032;-34
2022/11/12 06:23:06;;;;;;;7.43;6.40;;;;;;;3.72;100.00;103082.53;5073011;28;20413;-34
2022/11/12 06:25:31;;;;;;;7.20;6.30;;;;;;;3.71;100.00;103083.53;5072898;28;20039;-34
2022/11/12 06:27:57;;;;;;;7.20;6.00;;;;;;;3.75;100.00;103079.59;5072773;28;20453;-34
2022/11/12 06:30:22;;;;;;;8.43;6.43;;;;;;;3.77;100.00;103088.34;5071509;28;20455;-34
2022/11/12 06:32:48;;;;;;;9.30;6.37;;;;;;;3.78;100.00;103087.34;5072590;28;20478;-34
2022/11/12 06:35:14;;;;;;;;;;;;;;;3.87;100.00;103091.06;5073573;28;20035;-34
2022/11/12 06:37:40;;;;;;;15.13;7.50;;;;;;;3.92;100.00;103094.22;5073008;28;19908;-34
2022/11/12 06:40:06;;;;;;;10.13;7.03;;;;;;;3.99;100.00;103090.00;5073516;28;20063;-34
2022/11/12 06:42:31;;;;;;;11.55;7.15;;;;;;;4.02;100.00;103089.75;5076170;28;20028;-34
2022/11/12 06:44:57;;;;;;;12.00;7.77;;;;;;;3.90;100.00;103093.47;5076924;28;20036;-34
2022/11/12 06:47:22;;;;;;;9.83;7.60;;;;;;;3.87;100.00;103091.94;5076891;28;20029;-34
2022/11/12 06:49:47;;;;;;;10.93;7.20;;;;;;;3.75;100.00;103076.91;5077109;28;20064;-34
2022/11/12 06:52:14;;;;;;;11.10;6.90;;;;;;;3.64;100.00;103074.31;5075133;28;20037;-34
2022/11/12 06:54:39;;;;;;;8.15;6.80;;;;;;;3.75;100.00;103087.59;5076135;28;20059;-34
2022/11/12 06:57:04;;;;;;;11.03;7.50;;;;;;;3.91;100.00;103097.03;5076659;28;20028;-34
2022/11/12 06:59:30;;;;;;;16.03;6.80;;;;;;;4.00;100.00;103096.19;5076507;28;20392;-34
2022/11/12 07:01:55;;;;;;;13.07;7.10;;;;;;;4.00;100.00;103097.09;5076362;28;20039;-34
2022/11/12 07:04:20;;;;;;;13.93;7.20;;;;;;;4.01;100.00;103096.09;5076440;28;20472;-34
2022/11/12 07:06:46;;;;;;;20.93;7.50;;;;;;;4.09;100.00;103103.44;5076464;28;20040;-34
2022/11/12 07:09:11;;;;;;;46.77;12.80;;;;;;;3.98;100.00;103107.06;5076591;28;20021;-34
2022/11/12 07:11:36;;;;;;;22.63;7.90;;;;;;;4.08;100.00;103099.06;5076830;28;20063;-34
2022/11/12 07:14:05;;;;;;;11.67;6.13;;;;;;;4.19;100.00;103103.50;5077011;28;20034;-34
2022/11/12 07:16:30;;;;;;;25.33;8.85;;;;;;;4.08;100.00;103110.63;5076113;28;20101;-34
2022/11/12 07:18:56;;;;;;;10.63;7.10;;;;;;;4.04;100.00;103105.66;5076385;28;20449;-34
2022/11/12 07:21:21;;;;;;;12.17;6.83;;;;;;;4.08;100.00;103089.22;5075102;28;20056;-34
2022/11/12 07:23:47;;;;;;;12.83;7.00;;;;;;;4.26;100.00;103096.63;5076106;28;20036;-34
2022/11/12 07:26:15;;;;;;;17.92;7.22;;;;;;;4.23;100.00;103102.25;5076255;28;20024;-34
2022/11/12 07:28:41;;;;;;;14.88;7.28;;;;;;;4.13;100.00;103099.53;5075618;28;20211;-34
2022/11/12 07:31:09;;;;;;;13.82;7.05;;;;;;;4.23;100.00;103102.25;5075821;28;20039;-34
2022/11/12 07:33:34;;;;;;;17.75;8.75;;;;;;;4.16;100.00;103096.59;5076105;28;20435;-34
2022/11/12 07:36:05;;;;;;;8.77;6.87;;;;;;;4.29;100.00;103099.03;5075815;28;20029;-34
2022/11/12 07:38:33;;;;;;;8.35;6.78;;;;;;;4.47;100.00;103104.59;5075503;28;20829;-34
2022/11/12 07:41:25;;;;;;;14.38;6.65;;;;;;;4.54;100.00;103101.25;5075718;28;20025;-34
2022/11/12 07:43:52;;;;;;;8.25;6.72;;;;;;;4.54;100.00;103105.75;5073852;28;20075;-34
2022/11/12 07:46:21;;;;;;;11.32;7.40;;;;;;;4.41;100.00;103115.88;5075367;28;20138;-34
2022/11/12 07:48:47;;;;;;;9.00;7.00;;;;;;;4.62;100.00;103116.63;5075909;28;20451;-34
2022/11/12 07:51:21;;;;;;;11.40;7.82;;;;;;;4.68;100.00;103104.50;5075136;28;20111;-34
2022/11/12 07:53:47;;;;;;;9.55;6.95;;;;;;;4.78;100.00;103116.97;5076118;28;20464;-34
2022/11/12 07:56:16;;;;;;;10.43;7.28;;;;;;;4.72;100.00;103120.19;5075448;28;20025;-34
2022/11/12 07:58:41;;;;;;;15.85;7.60;;;;;;;4.77;100.00;103115.25;5076214;28;20377;-34
2022/11/12 08:01:14;;;;;;;23.33;9.10;;;;;;;4.79;100.00;103126.72;5075105;28;20032;-34
2022/11/12 08:03:39;;;;;;;11.85;7.57;;;;;;;4.92;100.00;103121.09;5075184;28;20024;-34
2022/11/12 08:06:05;;;;;;;12.37;8.00;;;;;;;4.84;100.00;103115.59;5075089;28;20033;-34
2022/11/12 08:08:30;;;;;;;13.95;7.78;;;;;;;5.04;100.00;103127.19;5075863;28;20024;-34
2022/11/12 08:10:56;;;;;;;15.70;8.23;;;;;;;5.04;100.00;103129.88;5075843;28;20401;-34
2022/11/12 08:13:22;;;;;;;11.77;7.65;;;;;;;5.21;100.00;103131.00;5075203;28;20017;-34
2022/11/12 08:15:48;;;;;;;10.20;7.72;;;;;;;5.12;100.00;103136.25;5075185;28;20476;-34
2022/11/12 08:18:13;;;;;;;10.77;7.47;;;;;;;5.20;100.00;103134.69;5075449;28;20036;-34
2022/11/12 08:20:38;;;;;;;12.03;7.93;;;;;;;5.16;100.00;103143.00;5075149;28;20033;-34
2022/11/12 08:23:04;;;;;;;10.23;8.03;;;;;;;5.16;100.00;103139.47;5074966;28;20021;-34
2022/11/12 08:25:29;;;;;;;8.53;7.37;;;;;;;5.19;100.00;103117.75;5074656;28;20025;-34
2022/11/12 08:27:57;;;;;;;11.50;8.17;;;;;;;5.27;100.00;103141.16;5075177;28;20092;-34
2022/11/12 08:30:22;;;;;;;11.52;7.80;;;;;;;5.40;100.00;103147.97;5074771;28;20024;-34
2022/11/12 08:32:55;;;;;;;11.30;7.97;;;;;;;5.59;100.00;103140.91;5074552;28;20024;-34
2022/11/12 08:35:20;;;;;;;9.38;7.85;;;;;;;5.62;100.00;103137.94;5074503;28;20300;-34
2022/11/12 08:37:45;;;;;;;11.43;8.10;;;;;;;5.74;100.00;103134.09;5074582;28;20427;-34
2022/11/12 08:40:11;;;;;;;11.17;8.33;;;;;;;5.74;100.00;103139.47;5074684;28;20474;-34
2022/11/12 08:42:36;;;;;;;13.30;8.90;;;;;;;5.82;100.00;103141.47;5074931;28;20035;-34
2022/11/12 08:45:02;;;;;;;16.83;8.47;;;;;;;5.83;100.00;103127.03;5074272;28;20392;-34
2022/11/12 08:47:27;;;;;;;22.87;10.50;;;;;;;5.84;100.00;103129.56;5074817;28;20187;-34
2022/11/12 08:49:52;;;;;;;63.23;13.63;;;;;;;6.07;100.00;103140.03;5074419;28;20028;-34
2022/11/12 08:52:18;;;;;;;31.47;9.57;;;;;;;6.17;100.00;103146.22;5074763;28;20052;-34
2022/11/12 08:54:43;;;;;;;12.30;8.00;;;;;;;6.20;100.00;103148.63;5074728;28;20445;-34
2022/11/12 08:57:08;;;;;;;10.23;7.73;;;;;;;6.21;100.00;103142.25;5074891;28;20063;-34
2022/11/12 08:59:34;;;;;;;10.73;7.83;;;;;;;6.32;100.00;103150.13;5074003;28;20029;-34
2022/11/12 09:01:59;;;;;;;39.27;10.07;;;;;;;6.42;100.00;103148.25;5073646;28;20033;-34
2022/11/12 09:04:24;;;;;;;14.33;7.57;;;;;;;6.55;100.00;103152.47;5073325;28;20392;-34
2022/11/12 09:06:50;;;;;;;9.47;6.87;;;;;;;6.56;100.00;103143.38;5074458;28;20535;-34
2022/11/12 09:09:15;;;;;;;22.33;8.07;;;;;;;6.69;100.00;103143.91;5073732;28;20032;-34
2022/11/12 09:11:40;;;;;;;10.13;6.20;;;;;;;6.80;100.00;103143.69;5074413;28;20094;-34
2022/11/12 09:14:05;;;;;;;9.37;7.37;;;;;;;6.85;100.00;103138.72;5073986;28;20032;-34
2022/11/12 09:16:31;;;;;;;11.33;7.13;;;;;;;6.89;100.00;103139.25;5074204;28;20067;-34
2022/11/12 09:18:56;;;;;;;19.13;9.00;;;;;;;6.99;100.00;103134.66;5074230;28;20140;-34
2022/11/12 09:21:23;;;;;;;12.97;7.87;;;;;;;7.01;100.00;103145.25;5074108;28;20085;-34
2022/11/12 09:23:49;;;;;;;56.90;10.93;;;;;;;6.88;100.00;103118.72;5074039;28;20434;-34
2022/11/12 09:26:14;;;;;;;9.60;7.25;;;;;;;7.17;100.00;103145.44;5073756;28;20035;-34
2022/11/12 09:28:39;;;;;;;9.77;7.33;;;;;;;7.26;100.00;103149.91;5073416;28;20457;-34
2022/11/12 09:31:06;;;;;;;13.97;7.80;;;;;;;7.32;100.00;103151.13;5072427;28;20039;-34
2022/11/12 09:33:32;;;;;;;10.70;7.70;;;;;;;7.38;100.00;103132.53;5073927;28;20026;-34
2022/11/12 09:36:02;;;;;;;10.68;7.45;;;;;;;7.45;100.00;103138.97;5074327;28;20350;-34
2022/11/12 09:38:27;;;;;;;9.85;7.25;;;;;;;7.63;100.00;103135.44;5074024;28;20033;-34
2022/11/12 09:40:53;;;;;;;12.07;7.37;;;;;;;7.67;100.00;103126.06;5073564;28;20029;-34
2022/11/12 09:43:38;;;;;;;14.43;8.53;;;;;;;7.60;100.00;103114.19;5073257;28;20025;-34
2022/11/12 09:46:11;;;;;;;13.80;7.45;;;;;;;7.72;100.00;103143.44;5074293;28;20453;-35
2022/11/12 09:48:46;;;;;;;9.05;7.60;;;;;;;7.78;100.00;103144.66;5073367;28;20109;-34
2022/11/12 09:51:14;;;;;;;9.55;7.45;;;;;;;7.86;100.00;103136.66;5073385;28;20082;-34
2022/11/12 09:53:51;;;;;;;9.10;7.20;;;;;;;7.90;100.00;103126.38;5073700;28;20114;-34
2022/11/12 09:56:19;;;;;;;11.77;7.95;;;;;;;8.06;100.00;103139.13;5073801;28;20124;-34
2022/11/12 09:58:44;;;;;;;10.50;7.60;;;;;;;8.10;100.00;103140.47;5073982;28;20029;-34
2022/11/12 10:01:18;;;;;;;85.80;15.00;;;;;;;8.16;100.00;103131.78;5072935;28;20021;-34
2022/11/12 10:03:59;;;;;;;13.40;8.43;;;;;;;8.26;100.00;103127.13;5073261;28;20266;-34
2022/11/12 10:06:33;;;;;;;23.70;10.70;;;;;;;8.36;100.00;103135.97;5073639;28;20103;-34
2022/11/12 10:09:19;;;;;;;72.28;14.10;;;;;;;8.49;100.00;103138.22;5073047;28;20033;-34
2022/11/12 10:18:14;;;;;;;16.40;7.35;;;;;;;8.93;100.00;103103.84;5073152;28;20102;-34
2022/11/12 10:20:51;;;;;;;12.25;8.23;;;;;;;9.09;99.30;103118.38;5072777;28;20182;-35
2022/11/12 10:23:26;;;;;;;14.88;7.88;;;;;;;9.17;98.99;103121.91;5072994;28;20028;-34
2022/11/12 10:25:55;;;;;;;11.52;7.35;;;;;;;9.22;99.13;103121.41;5073344;28;20100;-34
2022/11/12 10:28:28;;;;;;;16.35;7.68;;;;;;;9.33;100.00;103115.72;5073592;28;20085;-34
2022/11/12 10:31:05;;;;;;;10.52;7.63;;;;;;;9.33;99.56;103101.38;5072812;28;20064;-34
2022/11/12 10:33:31;;;;;;;;;;;;;;;9.49;100.00;103112.16;5073633;28;20024;-34
2022/11/12 10:36:21;;;;;;;13.55;7.07;;;;;;;9.57;98.38;103109.47;5072723;28;19970;-34
2022/11/12 10:38:50;;;;;;;11.43;8.32;;;;;;;9.67;96.87;103110.13;5062150;28;20457;-34
2022/11/12 10:41:25;;;;;;;20.08;8.65;;;;;;;9.71;97.75;103113.31;5072434;28;20077;-34
2022/11/12 10:44:05;;;;;;;13.40;7.95;;;;;;;9.83;95.80;103111.97;5072954;28;20533;-34
2022/11/12 10:46:39;;;;;;;92.40;18.33;;;;;;;9.92;96.16;103107.41;5072839;28;20032;-34
2022/11/12 10:49:15;;;;;;;13.95;8.20;;;;;;;10.01;95.08;103098.28;5073293;28;20120;-34
2022/11/12 10:51:52;;;;;;;12.67;9.60;;;;;;;10.00;97.44;103085.75;5073376;28;20086;-34
2022/11/12 10:54:27;;;;;;;12.50;9.60;;;;;;;10.16;95.02;103096.53;5072863;28;20083;-34
2022/11/12 10:56:53;;;;;;;10.40;8.80;;;;;;;10.25;93.10;103100.09;5072681;28;20032;-34
2022/11/12 10:59:22;;;;;;;8.10;7.25;;;;;;;10.34;93.14;103096.31;5072082;28;20170;-34
2022/11/12 11:01:57;;;;;;;10.73;7.93;;;;;;;10.43;92.94;103089.88;5072703;28;20412;-35
2022/11/12 11:04:25;;;;;;;8.00;7.20;;;;;;;10.47;93.65;103083.09;5072954;28;20476;-35
2022/11/12 11:07:14;;;;;;;22.38;9.15;;;;;;;10.53;94.45;103074.25;5072612;28;20103;-34
2022/11/12 11:09:52;;;;;;;9.75;7.32;;;;;;;10.68;93.69;103073.53;5073015;28;20024;-35
2022/11/12 11:12:30;;;;;;;11.88;8.27;;;;;;;10.80;93.37;103080.22;5072551;28;20040;-35
2022/11/12 11:15:17;;;;;;;34.55;12.10;;;;;;;10.80;93.61;103067.53;5072958;28;20438;-35
2022/11/12 11:17:42;;;;;;;9.70;8.20;;;;;;;10.94;93.35;103079.47;5072736;28;20028;-34
2022/11/12 11:20:51;;;;;;;20.53;9.07;;;;;;;11.06;94.53;103079.88;5072805;28;20039;-35
2022/11/12 11:23:24;;;;;;;11.30;8.20;;;;;;;11.11;92.77;103063.09;5072502;28;20294;-34
2022/11/12 11:25:53;;;;;;;12.18;9.02;;;;;;;11.25;93.50;103070.44;5073032;28;20071;-34
2022/11/12 11:28:46;;;;;;;12.63;9.05;;;;;;;11.20;93.28;103068.28;5076169;28;20078;-35
2022/11/12 11:31:25;;;;;;;9.75;8.23;;;;;;;11.30;92.41;103076.16;5076083;28;20028;-35
2022/11/12 11:34:29;;;;;;;9.32;8.10;;;;;;;11.37;92.99;103068.13;5076309;28;20031;-35
2022/11/12 11:37:15;;;;;;;12.15;8.20;;;;;;;11.46;93.02;103073.31;5076271;28;20077;-35
2022/11/12 11:40:07;;;;;;;12.75;8.52;;;;;;;11.54;93.42;103062.41;5075890;28;20040;-34
2022/11/12 11:42:57;;;;;;;8.93;8.02;;;;;;;11.63;91.88;103062.34;5065196;28;20047;-35
2022/11/12 11:45:31;;;;;;;10.27;8.73;;;;;;;11.66;91.50;103060.09;5076186;28;20033;-35
2022/11/12 11:48:21;;;;;;;12.00;8.98;;;;;;;11.75;91.75;103055.44;5076357;28;20112;-34
2022/11/12 11:51:16;;;;;;;9.68;8.75;;;;;;;11.75;91.91;103045.44;5076229;28;20082;-35